< < Back
Terminal Aerodrome Forecast


Current Version              Previous Versions:   1  2  3  4  5  6  7  8  9  

Terminal Aerodrome Forecast

204
FTAK31 PAJN 262100 AAA
TAFAGS
TAF AMD
PAGS 262108Z 2621/2718 25008KT P6SM BKN022 BKN150
     FM262300 26008KT P6SM SCT025 BKN070
     FM270600 VRB04KT P6SM VCSH BKN015 OVC060
     FM270900 VRB03KT P6SM -RA BKN015 OVC035
      AMD LTD TO CLD VIS AND WIND=

Latest METAR

459
SAUS70 KWBC 270200 RRA
MTRAGS
METAR KAGS 270153Z 00000KT 10SM FEW049 BKN060 OVC090 21/20 A3025 RMK AO2
LTG DSNT NE AND S RAE47 SLP240 P0008 T02060200


USA.gov is the U.S. government's official web portal to all federal, state and local government web resources and services.